Winston Salem, North Carolina
Current Conditions -  °F | °C
As of 10:54 AM on Friday 24 Oct 2014 (Local Time) from KINT Reporting Station
Clear Clear  
Wind Chill: 61°   Ceiling: Unl
Heat Index: 61°   Visibility: 10mi
Dew Point: 40°   Wind: 3mph
Humidity: 46%   Direction: 320°NW
Pressure: 30.08"   Gusts: NA
Location:  36.1112°N, 80.1999°W
Report Text: KINT 241454Z 32003KT 10SM CLR 16/04 A3008 RMK AO2 SLP183 T01610044 50010
Loading
Personal Weather Stations






























Interactive Weather Map
Tropical Storm Tracking
New forecast layout! Learn more

10-Day Weather Forecast

Advertisements
Track Severe Weather on mobile